createdAt,value
2018-03-20T00:00:15.832Z,1010.07
2018-03-20T00:01:15.801Z,1010.08
2018-03-20T00:02:16.148Z,1010.08
2018-03-20T00:03:15.680Z,1010.07
2018-03-20T00:04:15.654Z,1010.07
2018-03-20T00:05:15.667Z,1010.04
2018-03-20T00:06:15.639Z,1010.03
2018-03-20T00:07:15.537Z,1010.04
2018-03-20T00:08:15.509Z,1010.00
2018-03-20T00:09:15.576Z,1009.98
2018-03-20T00:10:15.450Z,1010.02
2018-03-20T00:11:15.425Z,1010.09
2018-03-20T00:12:15.372Z,1010.02
2018-03-20T00:13:15.356Z,1009.99
2018-03-20T00:14:15.302Z,1010.04
2018-03-20T00:15:15.282Z,1010.04
2018-03-20T00:16:15.280Z,1010.14
2018-03-20T00:17:15.206Z,1010.14
2018-03-20T00:18:15.175Z,1010.12
2018-03-20T00:19:15.135Z,1010.09
2018-03-20T00:20:15.155Z,1010.09
2018-03-20T00:21:15.063Z,1010.09
2018-03-20T00:22:15.035Z,1010.15
2018-03-20T00:23:15.020Z,1010.11
2018-03-20T00:24:14.961Z,1010.13
2018-03-20T00:25:14.922Z,1010.12
2018-03-20T00:26:14.901Z,1010.09
2018-03-20T00:27:14.889Z,1010.12
2018-03-20T00:28:14.828Z,1010.10
2018-03-20T00:29:14.821Z,1010.15
2018-03-20T00:30:14.797Z,1010.11
2018-03-20T00:31:14.743Z,1010.12
2018-03-20T00:32:14.682Z,1010.17
2018-03-20T00:33:14.658Z,1010.20
2018-03-20T00:34:14.621Z,1010.23
2018-03-20T00:35:14.579Z,1010.24
2018-03-20T00:36:14.561Z,1010.24
2018-03-20T00:37:14.545Z,1010.24
2018-03-20T00:38:14.492Z,1010.19
2018-03-20T00:39:14.468Z,1010.16
2018-03-20T00:40:14.479Z,1010.14
2018-03-20T00:41:14.384Z,1010.16
2018-03-20T00:42:14.365Z,1010.11
2018-03-20T00:43:14.326Z,1010.14
2018-03-20T00:44:14.309Z,1010.08
2018-03-20T00:45:14.277Z,1010.07
2018-03-20T00:46:14.247Z,1010.08
2018-03-20T00:47:14.179Z,1010.15
2018-03-20T00:48:14.177Z,1010.19
2018-03-20T00:49:14.120Z,1010.16
2018-03-20T00:50:14.106Z,1010.18
2018-03-20T00:51:14.069Z,1010.17
2018-03-20T00:52:14.009Z,1010.21
2018-03-20T00:53:14.020Z,1010.26
2018-03-20T00:54:13.990Z,1010.17
2018-03-20T00:55:13.921Z,1010.20
2018-03-20T00:56:13.864Z,1010.16
2018-03-20T00:57:13.879Z,1010.17
2018-03-20T00:58:13.803Z,1010.19
2018-03-20T00:59:13.782Z,1010.22
2018-03-20T01:00:13.747Z,1010.20
2018-03-20T01:01:13.699Z,1010.21
2018-03-20T01:02:13.710Z,1010.18
2018-03-20T01:03:13.667Z,1010.17
2018-03-20T01:04:13.604Z,1010.19
2018-03-20T01:05:13.583Z,1010.15
2018-03-20T01:06:13.533Z,1010.13
2018-03-20T01:07:13.508Z,1010.12
2018-03-20T01:08:13.501Z,1010.16
2018-03-20T01:09:13.524Z,1010.15
2018-03-20T01:10:13.437Z,1010.14
2018-03-20T01:11:13.361Z,1010.09
2018-03-20T01:12:13.369Z,1010.04
2018-03-20T01:13:13.337Z,1010.03
2018-03-20T01:14:13.274Z,1010.04
2018-03-20T01:15:13.279Z,1010.04
2018-03-20T01:16:13.200Z,1010.06
2018-03-20T01:17:13.159Z,1010.08
2018-03-20T01:18:13.118Z,1010.06
2018-03-20T01:19:13.101Z,1010.08
2018-03-20T01:20:13.057Z,1010.05
2018-03-20T01:21:13.029Z,1010.07
2018-03-20T01:22:12.988Z,1010.04
2018-03-20T01:23:13.008Z,1010.06
2018-03-20T01:24:12.922Z,1010.03
2018-03-20T01:25:12.947Z,1010.04
2018-03-20T01:26:12.844Z,1010.01
2018-03-20T01:27:12.835Z,1010.00
2018-03-20T01:28:12.824Z,1009.97
2018-03-20T01:29:12.860Z,1009.98
2018-03-20T01:30:12.757Z,1009.96
2018-03-20T01:31:12.719Z,1009.95
2018-03-20T01:32:12.670Z,1009.91
2018-03-20T01:33:12.733Z,1009.90
2018-03-20T01:34:12.602Z,1009.84
2018-03-20T01:35:12.592Z,1009.86
2018-03-20T01:36:12.585Z,1009.86
2018-03-20T01:37:12.497Z,1009.84
2018-03-20T01:38:12.479Z,1009.83
2018-03-20T01:39:12.438Z,1009.74
2018-03-20T01:40:12.413Z,1009.73
2018-03-20T01:41:12.370Z,1009.68
2018-03-20T01:42:12.353Z,1009.60
2018-03-20T01:43:12.351Z,1009.55
2018-03-20T01:44:12.257Z,1009.55
2018-03-20T01:45:12.253Z,1009.66
2018-03-20T01:46:12.180Z,1009.71
2018-03-20T01:47:12.155Z,1009.71
2018-03-20T01:48:12.168Z,1009.75
2018-03-20T01:49:12.070Z,1009.77
2018-03-20T01:50:12.073Z,1009.77
2018-03-20T01:51:12.010Z,1009.76
2018-03-20T01:52:12.016Z,1009.72
2018-03-20T01:53:11.977Z,1009.71
2018-03-20T01:54:11.904Z,1009.70
2018-03-20T01:55:11.919Z,1009.69
2018-03-20T01:56:11.847Z,1009.66
2018-03-20T01:57:11.818Z,1009.69
2018-03-20T01:58:11.797Z,1009.72
2018-03-20T01:59:11.750Z,1009.79
2018-03-20T02:00:11.748Z,1009.76
2018-03-20T02:01:11.730Z,1009.78
2018-03-20T02:02:11.657Z,1009.70
2018-03-20T02:03:11.667Z,1009.68
2018-03-20T02:04:11.584Z,1009.71
2018-03-20T02:05:11.563Z,1009.67
2018-03-20T02:06:11.539Z,1009.64
2018-03-20T02:07:11.497Z,1009.61
2018-03-20T02:08:11.455Z,1009.58
2018-03-20T02:09:11.415Z,1009.59
2018-03-20T02:10:11.502Z,1009.55
2018-03-20T02:11:11.439Z,1009.57
2018-03-20T02:12:11.326Z,1009.54
2018-03-20T02:13:11.314Z,1009.50
2018-03-20T02:14:11.263Z,1009.52
2018-03-20T02:15:11.240Z,1009.51
2018-03-20T02:16:11.241Z,1009.47
2018-03-20T02:17:11.154Z,1009.45
2018-03-20T02:18:11.135Z,1009.41
2018-03-20T02:19:11.108Z,1009.39
2018-03-20T02:20:11.048Z,1009.38
2018-03-20T02:21:11.040Z,1009.38
2018-03-20T02:22:11.006Z,1009.36
2018-03-20T02:23:10.952Z,1009.36
2018-03-20T02:24:10.904Z,1009.36
2018-03-20T02:25:10.898Z,1009.34
2018-03-20T02:26:10.824Z,1009.37
2018-03-20T02:27:10.849Z,1009.32
2018-03-20T02:28:10.763Z,1009.31
2018-03-20T02:29:10.745Z,1009.29
2018-03-20T02:30:10.736Z,1009.17
2018-03-20T02:31:10.685Z,1009.20
2018-03-20T02:32:10.629Z,1009.18
2018-03-20T02:33:10.616Z,1009.17
2018-03-20T02:34:10.626Z,1009.21
2018-03-20T02:35:10.553Z,1009.18
2018-03-20T02:36:10.901Z,1009.17
2018-03-20T02:37:10.465Z,1009.22
2018-03-20T02:38:10.446Z,1009.26
2018-03-20T02:39:10.428Z,1009.23
2018-03-20T02:40:10.383Z,1009.17
2018-03-20T02:41:10.349Z,1009.24
2018-03-20T02:42:10.312Z,1009.22
2018-03-20T02:43:10.263Z,1009.17
2018-03-20T02:44:10.219Z,1009.15
2018-03-20T02:45:10.244Z,1009.11
2018-03-20T02:46:10.164Z,1009.15
2018-03-20T02:47:10.152Z,1009.15
2018-03-20T02:48:10.125Z,1009.15
2018-03-20T02:49:10.068Z,1009.13
2018-03-20T02:50:10.056Z,1009.10
2018-03-20T02:51:10.036Z,1009.11
2018-03-20T02:52:10.008Z,1009.15
2018-03-20T02:53:09.962Z,1009.14
2018-03-20T02:54:09.894Z,1009.13
2018-03-20T02:55:09.859Z,1009.15
2018-03-20T02:56:09.848Z,1009.08
2018-03-20T02:57:09.808Z,1009.14
2018-03-20T02:58:09.788Z,1009.13
2018-03-20T02:59:09.731Z,1009.09
2018-03-20T03:00:09.696Z,1009.08
2018-03-20T03:01:09.660Z,1009.09
2018-03-20T03:02:09.612Z,1009.08
2018-03-20T03:03:09.602Z,1009.08
2018-03-20T03:04:09.574Z,1009.09
2018-03-20T03:05:09.520Z,1009.11
2018-03-20T03:06:09.536Z,1009.08
2018-03-20T03:07:09.473Z,1009.05
2018-03-20T03:08:09.436Z,1009.06
2018-03-20T03:09:09.430Z,1009.12
2018-03-20T03:10:09.448Z,1009.10
2018-03-20T03:11:09.328Z,1009.10
2018-03-20T03:12:09.298Z,1009.08
2018-03-20T03:13:09.268Z,1009.06
2018-03-20T03:14:09.213Z,1009.06
2018-03-20T03:15:09.182Z,1009.00
2018-03-20T03:16:09.196Z,1009.02
2018-03-20T03:17:09.119Z,1009.03
2018-03-20T03:18:09.103Z,1009.00
2018-03-20T03:19:09.049Z,1009.04
2018-03-20T03:20:09.018Z,1009.03
2018-03-20T03:21:09.027Z,1009.02
2018-03-20T03:22:09.013Z,1009.00
2018-03-20T03:23:08.981Z,1008.99
2018-03-20T03:24:08.921Z,1008.92
2018-03-20T03:25:08.872Z,1008.93
2018-03-20T03:26:08.854Z,1008.99
2018-03-20T03:27:08.798Z,1008.92
2018-03-20T03:28:08.817Z,1008.96
2018-03-20T03:29:08.725Z,1008.95
2018-03-20T03:30:08.682Z,1008.98
2018-03-20T03:31:08.673Z,1009.00
2018-03-20T03:32:08.638Z,1009.03
2018-03-20T03:33:08.596Z,1009.00
2018-03-20T03:34:08.559Z,1009.05
2018-03-20T03:35:08.506Z,1009.00
2018-03-20T03:36:08.483Z,1009.02
2018-03-20T03:37:08.494Z,1008.99
2018-03-20T03:38:08.413Z,1008.98
2018-03-20T03:39:08.389Z,1008.95
2018-03-20T03:40:08.356Z,1009.00
2018-03-20T03:41:08.312Z,1009.02
2018-03-20T03:42:08.348Z,1009.01
2018-03-20T03:43:08.272Z,1009.01
2018-03-20T03:44:08.254Z,1009.00
2018-03-20T03:45:08.169Z,1009.00
2018-03-20T03:46:08.149Z,1009.03
2018-03-20T03:47:08.133Z,1009.00
2018-03-20T03:48:08.075Z,1008.99
2018-03-20T03:49:08.041Z,1009.01
2018-03-20T03:50:08.024Z,1009.04
2018-03-20T03:51:07.996Z,1009.03
2018-03-20T03:52:07.956Z,1009.03
2018-03-20T03:53:07.984Z,1009.03
2018-03-20T03:54:07.867Z,1009.04
2018-03-20T03:55:07.887Z,1009.04
2018-03-20T03:56:07.844Z,1009.10
2018-03-20T03:57:07.846Z,1009.12
2018-03-20T03:58:07.732Z,1009.14
2018-03-20T03:59:07.751Z,1009.09
2018-03-20T04:00:07.667Z,1009.15
2018-03-20T04:01:07.680Z,1009.12
2018-03-20T04:02:07.639Z,1009.12
2018-03-20T04:03:07.575Z,1009.12
2018-03-20T04:04:07.568Z,1009.16
2018-03-20T04:05:07.506Z,1009.12
2018-03-20T04:06:07.500Z,1009.12
2018-03-20T04:07:07.431Z,1009.09
2018-03-20T04:08:07.408Z,1009.08
2018-03-20T04:09:07.397Z,1009.08
2018-03-20T04:10:07.423Z,1009.06
2018-03-20T04:11:07.299Z,1009.06
2018-03-20T04:12:07.304Z,1009.07
2018-03-20T04:13:07.253Z,1009.04
2018-03-20T04:14:07.217Z,1009.06
2018-03-20T04:15:07.220Z,1009.05
2018-03-20T04:16:07.152Z,1009.08
2018-03-20T04:17:07.102Z,1009.02
2018-03-20T04:18:07.199Z,1009.04
2018-03-20T04:19:07.083Z,1009.04
2018-03-20T04:20:07.005Z,1008.97
2018-03-20T04:21:06.978Z,1008.96
2018-03-20T04:22:06.938Z,1008.98
2018-03-20T04:23:06.916Z,1009.05
2018-03-20T04:24:06.911Z,1009.08
2018-03-20T04:25:06.856Z,1009.02
2018-03-20T04:26:06.840Z,1009.03
2018-03-20T04:27:06.800Z,1009.00
2018-03-20T04:28:06.740Z,1009.07
2018-03-20T04:29:06.766Z,1009.08
2018-03-20T04:30:06.670Z,1009.05
2018-03-20T04:31:06.646Z,1009.04
2018-03-20T04:32:06.650Z,1009.06
2018-03-20T04:33:06.565Z,1009.04
2018-03-20T04:34:06.553Z,1009.08
2018-03-20T04:35:06.508Z,1009.02
2018-03-20T04:36:06.493Z,1008.98
2018-03-20T04:37:06.481Z,1009.05
2018-03-20T04:38:06.419Z,1009.05
2018-03-20T04:39:06.404Z,1009.01
2018-03-20T04:40:06.343Z,1009.07
2018-03-20T04:41:06.328Z,1009.03
2018-03-20T04:42:06.313Z,1009.14
2018-03-20T04:43:06.256Z,1009.12
2018-03-20T04:44:06.240Z,1009.14
2018-03-20T04:45:06.218Z,1009.12
2018-03-20T04:46:06.154Z,1009.12
2018-03-20T04:47:06.110Z,1009.17
2018-03-20T04:48:06.099Z,1009.20
2018-03-20T04:49:06.053Z,1009.15
2018-03-20T04:50:05.996Z,1009.23
2018-03-20T04:51:05.988Z,1009.12
2018-03-20T04:52:05.985Z,1009.10
2018-03-20T04:53:05.906Z,1009.10
2018-03-20T04:54:05.892Z,1009.09
2018-03-20T04:55:05.885Z,1009.08
2018-03-20T04:56:05.844Z,1009.16
2018-03-20T04:57:05.796Z,1009.12
2018-03-20T04:58:05.745Z,1009.13
2018-03-20T04:59:05.721Z,1009.13
2018-03-20T05:00:05.729Z,1009.20
2018-03-20T05:01:05.652Z,1009.14
2018-03-20T05:02:05.636Z,1009.12
2018-03-20T05:03:05.582Z,1009.11
2018-03-20T05:04:05.549Z,1009.12
2018-03-20T05:05:05.505Z,1009.14
2018-03-20T05:06:05.478Z,1009.13
2018-03-20T05:07:05.467Z,1009.11
2018-03-20T05:08:05.418Z,1009.14
2018-03-20T05:09:05.406Z,1009.18
2018-03-20T05:10:05.487Z,1009.13
2018-03-20T05:11:05.329Z,1009.15
2018-03-20T05:12:05.315Z,1009.13
2018-03-20T05:13:05.281Z,1009.22
2018-03-20T05:14:05.245Z,1009.18
2018-03-20T05:15:05.218Z,1009.20
2018-03-20T05:16:05.251Z,1009.18
2018-03-20T05:17:05.200Z,1009.13
2018-03-20T05:18:05.094Z,1009.14
2018-03-20T05:19:05.072Z,1009.19
2018-03-20T05:20:05.053Z,1009.17
2018-03-20T05:21:05.073Z,1009.20
2018-03-20T05:22:05.047Z,1009.19
2018-03-20T05:23:04.984Z,1009.16
2018-03-20T05:24:04.965Z,1009.13
2018-03-20T05:25:04.932Z,1009.17
2018-03-20T05:26:04.813Z,1009.23
2018-03-20T05:27:04.792Z,1009.15
2018-03-20T05:28:04.762Z,1009.23
2018-03-20T05:29:04.718Z,1009.23
2018-03-20T05:30:04.687Z,1009.17
2018-03-20T05:31:04.650Z,1009.18
2018-03-20T05:32:04.624Z,1009.23
2018-03-20T05:33:04.586Z,1009.26
2018-03-20T05:34:04.566Z,1009.24
2018-03-20T05:35:04.524Z,1009.25
2018-03-20T05:36:04.513Z,1009.21
2018-03-20T05:37:04.489Z,1009.19
2018-03-20T05:38:04.449Z,1009.19
2018-03-20T05:39:04.450Z,1009.14
2018-03-20T05:40:04.395Z,1009.16
2018-03-20T05:41:04.348Z,1009.16
2018-03-20T05:42:04.305Z,1009.15
2018-03-20T05:43:04.269Z,1009.17
2018-03-20T05:44:04.267Z,1009.14
2018-03-20T05:45:04.256Z,1009.16
2018-03-20T05:46:04.289Z,1009.16
2018-03-20T05:47:04.171Z,1009.15
2018-03-20T05:48:04.103Z,1009.13
2018-03-20T05:49:04.062Z,1009.14
2018-03-20T05:50:04.043Z,1009.14
2018-03-20T05:51:04.011Z,1009.17
2018-03-20T05:52:03.995Z,1009.17
2018-03-20T05:53:03.936Z,1009.13
2018-03-20T05:54:03.924Z,1009.13
2018-03-20T05:55:03.886Z,1009.27
2018-03-20T05:56:03.842Z,1009.25
2018-03-20T05:57:03.828Z,1009.28
2018-03-20T05:58:05.296Z,1009.31
2018-03-20T05:59:05.212Z,1009.35
2018-03-20T06:00:03.705Z,1009.30
2018-03-20T06:01:03.677Z,1009.33
2018-03-20T06:02:03.651Z,1009.34
2018-03-20T06:03:03.621Z,1009.38
2018-03-20T06:04:03.603Z,1009.35
2018-03-20T06:05:03.553Z,1009.33
2018-03-20T06:06:03.538Z,1009.32
2018-03-20T06:07:03.495Z,1009.32
2018-03-20T06:08:03.476Z,1009.33
2018-03-20T06:09:03.433Z,1009.31
2018-03-20T06:10:03.531Z,1009.31
2018-03-20T06:11:03.359Z,1009.33
2018-03-20T06:12:03.325Z,1009.34
2018-03-20T06:13:03.302Z,1009.38
2018-03-20T06:14:03.253Z,1009.42
2018-03-20T06:15:03.238Z,1009.44
2018-03-20T06:16:03.187Z,1009.45
2018-03-20T06:17:03.170Z,1009.45
2018-03-20T06:18:03.153Z,1009.52
2018-03-20T06:19:03.093Z,1009.55
2018-03-20T06:20:03.108Z,1009.45
2018-03-20T06:21:03.032Z,1009.45
2018-03-20T06:22:02.997Z,1009.39
2018-03-20T06:23:02.991Z,1009.41
2018-03-20T06:24:02.940Z,1009.38
2018-03-20T06:25:02.924Z,1009.46
2018-03-20T06:26:02.886Z,1009.38
2018-03-20T06:27:02.837Z,1009.46
2018-03-20T06:28:02.820Z,1009.43
2018-03-20T06:29:02.769Z,1009.48
2018-03-20T06:30:02.743Z,1009.47
2018-03-20T06:31:02.729Z,1009.53
2018-03-20T06:32:02.678Z,1009.55
2018-03-20T06:33:02.662Z,1009.61
2018-03-20T06:34:02.627Z,1009.62
2018-03-20T06:35:02.611Z,1009.61
2018-03-20T06:36:02.542Z,1009.66
2018-03-20T06:37:02.830Z,1009.68
2018-03-20T06:38:02.556Z,1009.68
2018-03-20T06:39:02.591Z,1009.70
2018-03-20T06:40:02.422Z,1009.74
2018-03-20T06:41:02.394Z,1009.73
2018-03-20T06:42:02.367Z,1009.72
2018-03-20T06:43:02.331Z,1009.72
2018-03-20T06:44:02.329Z,1009.76
2018-03-20T06:45:02.253Z,1009.85
2018-03-20T06:46:02.235Z,1009.77
2018-03-20T06:47:02.217Z,1009.81
2018-03-20T06:48:02.179Z,1009.82
2018-03-20T06:49:02.273Z,1009.85
2018-03-20T06:50:02.109Z,1009.86
2018-03-20T06:51:02.084Z,1009.92
2018-03-20T06:52:02.063Z,1009.90
2018-03-20T06:53:01.999Z,1009.92
2018-03-20T06:54:01.977Z,1009.95
2018-03-20T06:55:01.940Z,1010.05
2018-03-20T06:56:01.963Z,1010.07
2018-03-20T06:57:01.879Z,1010.03
2018-03-20T06:58:01.832Z,1010.09
2018-03-20T06:59:01.823Z,1010.11
2018-03-20T07:00:01.781Z,1010.15
2018-03-20T07:01:01.740Z,1010.16
2018-03-20T07:02:01.713Z,1010.14
2018-03-20T07:03:01.755Z,1010.16
2018-03-20T07:04:01.642Z,1010.16
2018-03-20T07:05:01.615Z,1010.17
2018-03-20T07:06:01.658Z,1010.16
2018-03-20T07:07:01.560Z,1010.22
2018-03-20T07:08:01.520Z,1010.29
2018-03-20T07:09:01.479Z,1010.23
2018-03-20T07:10:01.558Z,1010.24
2018-03-20T07:11:01.441Z,1010.26
2018-03-20T07:12:01.403Z,1010.36
2018-03-20T07:13:01.351Z,1010.30
2018-03-20T07:14:01.333Z,1010.32
2018-03-20T07:15:01.329Z,1010.37
2018-03-20T07:16:01.278Z,1010.47
2018-03-20T07:17:01.302Z,1010.38
2018-03-20T07:18:01.189Z,1010.39
2018-03-20T07:19:01.169Z,1010.48
2018-03-20T07:20:01.122Z,1010.47
2018-03-20T07:21:01.103Z,1010.57
2018-03-20T07:22:01.070Z,1010.58
2018-03-20T07:23:01.044Z,1010.57
2018-03-20T07:24:01.007Z,1010.56
2018-03-20T07:25:00.977Z,1010.65
2018-03-20T07:26:00.986Z,1010.58
2018-03-20T07:27:00.924Z,1010.65
2018-03-20T07:28:00.937Z,1010.67
2018-03-20T07:29:00.911Z,1010.68
2018-03-20T07:30:00.812Z,1010.64
2018-03-20T07:31:00.808Z,1010.67
2018-03-20T07:32:00.765Z,1010.72
2018-03-20T07:33:00.704Z,1010.75
2018-03-20T07:34:00.823Z,1010.76
2018-03-20T07:35:00.650Z,1010.79
2018-03-20T07:36:00.645Z,1010.94
2018-03-20T07:37:00.684Z,1010.89
2018-03-20T07:38:00.554Z,1010.88
2018-03-20T07:39:00.540Z,1010.81
2018-03-20T07:40:00.493Z,1010.90
2018-03-20T07:41:00.471Z,1010.87
2018-03-20T07:42:00.428Z,1010.92
2018-03-20T07:43:00.391Z,1010.93
2018-03-20T07:44:00.352Z,1010.96
2018-03-20T07:45:00.365Z,1011.00
2018-03-20T07:46:00.333Z,1010.99
2018-03-20T07:47:00.259Z,1010.91
2018-03-20T07:48:00.234Z,1010.97
2018-03-20T07:49:00.202Z,1010.98
2018-03-20T07:50:00.178Z,1011.00
2018-03-20T07:51:00.189Z,1010.98
2018-03-20T07:52:00.130Z,1011.00
2018-03-20T07:53:00.079Z,1011.01
2018-03-20T07:54:00.036Z,1010.96
2018-03-20T07:55:00.030Z,1011.09
2018-03-20T07:55:59.990Z,1011.04
2018-03-20T07:56:59.937Z,1011.09
2018-03-20T07:57:59.953Z,1011.10
2018-03-20T07:58:59.886Z,1011.05
2018-03-20T07:59:59.857Z,1011.11
2018-03-20T08:00:59.831Z,1011.12
2018-03-20T08:01:59.860Z,1011.13
2018-03-20T08:02:59.752Z,1011.16
2018-03-20T08:03:59.740Z,1011.10
2018-03-20T08:04:59.682Z,1011.14
2018-03-20T08:05:59.673Z,1011.15
2018-03-20T08:06:59.618Z,1011.18
2018-03-20T08:07:59.589Z,1011.20
2018-03-20T08:08:59.565Z,1011.28
2018-03-20T08:09:59.525Z,1011.23
2018-03-20T08:10:59.490Z,1011.43
2018-03-20T08:11:59.462Z,1011.37
2018-03-20T08:12:59.441Z,1011.26
2018-03-20T08:13:59.392Z,1011.33
2018-03-20T08:14:59.370Z,1011.27
2018-03-20T08:15:59.331Z,1011.32
2018-03-20T08:16:59.317Z,1011.40
2018-03-20T08:17:59.270Z,1011.43
2018-03-20T08:18:59.232Z,1011.39
2018-03-20T08:19:59.209Z,1011.41
2018-03-20T08:20:59.169Z,1011.45
2018-03-20T08:21:59.142Z,1011.40
2018-03-20T08:22:59.156Z,1011.47
2018-03-20T08:23:59.083Z,1011.51
2018-03-20T08:24:59.067Z,1011.54
2018-03-20T08:25:59.017Z,1011.56
2018-03-20T08:26:58.984Z,1011.64
2018-03-20T08:27:58.951Z,1011.67
2018-03-20T08:28:58.937Z,1011.71
2018-03-20T08:29:58.893Z,1011.67
2018-03-20T08:30:58.849Z,1011.71
2018-03-20T08:31:58.825Z,1011.76
2018-03-20T08:32:58.803Z,1011.74
2018-03-20T08:33:58.760Z,1011.71
2018-03-20T08:34:58.725Z,1011.69
2018-03-20T08:35:58.708Z,1011.76
2018-03-20T08:36:58.661Z,1011.80
2018-03-20T08:37:58.635Z,1011.73
2018-03-20T08:38:58.599Z,1011.78
2018-03-20T08:39:58.569Z,1011.81
2018-03-20T08:40:58.545Z,1011.89
2018-03-20T08:41:58.539Z,1011.82
2018-03-20T08:42:58.474Z,1011.99
2018-03-20T08:43:58.447Z,1011.95
2018-03-20T08:44:58.414Z,1011.97
2018-03-20T08:45:58.389Z,1012.06
2018-03-20T08:46:58.342Z,1012.02
2018-03-20T08:47:58.312Z,1011.97
2018-03-20T08:48:58.298Z,1012.01
2018-03-20T08:49:58.267Z,1012.05
2018-03-20T08:50:58.218Z,1012.13
2018-03-20T08:51:58.185Z,1012.13
2018-03-20T08:52:58.152Z,1012.00
2018-03-20T08:53:58.137Z,1012.15
2018-03-20T08:54:58.090Z,1012.06
2018-03-20T08:55:58.059Z,1012.07
2018-03-20T08:56:58.031Z,1012.11
2018-03-20T08:57:58.006Z,1012.17
2018-03-20T08:58:57.979Z,1012.10
2018-03-20T08:59:57.935Z,1012.20
2018-03-20T09:00:57.901Z,1012.34
2018-03-20T09:01:57.875Z,1012.24
2018-03-20T09:02:58.997Z,1012.24
2018-03-20T09:03:57.819Z,1012.46
2018-03-20T09:04:57.781Z,1012.30
2018-03-20T09:05:57.751Z,1012.31
2018-03-20T09:06:57.823Z,1012.33
2018-03-20T09:07:57.700Z,1012.38
2018-03-20T09:08:57.648Z,1012.42
2018-03-20T09:09:57.629Z,1012.45
2018-03-20T09:10:57.584Z,1012.50
2018-03-20T09:11:57.552Z,1012.40
2018-03-20T09:12:57.529Z,1012.42
2018-03-20T09:13:57.494Z,1012.52
2018-03-20T09:14:57.466Z,1012.48
2018-03-20T09:15:57.448Z,1012.51
2018-03-20T09:16:57.389Z,1012.51
2018-03-20T09:17:57.431Z,1012.52
2018-03-20T09:18:57.336Z,1012.53
2018-03-20T09:19:57.344Z,1012.48
2018-03-20T09:20:57.275Z,1012.55
2018-03-20T09:21:57.241Z,1012.57
2018-03-20T09:22:57.220Z,1012.56
2018-03-20T09:23:57.177Z,1012.60
2018-03-20T09:24:57.136Z,1012.59
2018-03-20T09:25:57.126Z,1012.68
2018-03-20T09:26:57.086Z,1012.62
2018-03-20T09:27:57.047Z,1012.68
2018-03-20T09:28:57.047Z,1012.67
2018-03-20T09:29:57.023Z,1012.63
2018-03-20T09:30:56.950Z,1012.64
2018-03-20T09:31:56.941Z,1012.69
2018-03-20T09:32:56.886Z,1012.64
2018-03-20T09:33:56.879Z,1012.77
2018-03-20T09:34:56.869Z,1012.80
2018-03-20T09:35:56.797Z,1012.70
2018-03-20T09:36:56.766Z,1012.71
2018-03-20T09:37:56.750Z,1012.70
2018-03-20T09:38:56.703Z,1012.71
2018-03-20T09:39:56.679Z,1012.80
2018-03-20T09:40:56.640Z,1012.77
2018-03-20T09:41:56.630Z,1012.78
2018-03-20T09:42:56.574Z,1012.79
2018-03-20T09:43:56.551Z,1012.83
2018-03-20T09:44:56.529Z,1012.85
2018-03-20T09:45:56.492Z,1012.84
2018-03-20T09:46:56.457Z,1012.79
2018-03-20T09:47:56.425Z,1012.80
2018-03-20T09:48:56.398Z,1012.86
2018-03-20T09:49:56.372Z,1012.85
2018-03-20T09:50:56.369Z,1012.87
2018-03-20T09:51:56.314Z,1012.99
2018-03-20T09:52:58.060Z,1012.87
2018-03-20T09:53:56.245Z,1012.93
2018-03-20T09:54:56.258Z,1012.95
2018-03-20T09:55:56.175Z,1012.89
2018-03-20T09:56:56.159Z,1013.05
2018-03-20T09:57:56.119Z,1013.09
2018-03-20T09:58:56.098Z,1012.95
2018-03-20T09:59:56.057Z,1012.99
2018-03-20T10:00:56.034Z,1013.10
2018-03-20T10:01:56.000Z,1013.01
2018-03-20T10:02:55.973Z,1013.01
2018-03-20T10:04:06.321Z,1013.02
2018-03-20T10:04:55.919Z,1012.99
2018-03-20T10:05:55.877Z,1013.02
2018-03-20T10:06:55.833Z,1012.98
2018-03-20T10:07:55.813Z,1013.08
2018-03-20T10:08:55.790Z,1013.01
2018-03-20T10:09:55.744Z,1013.10
2018-03-20T10:10:55.713Z,1013.25
2018-03-20T10:11:55.700Z,1013.19
2018-03-20T10:12:55.657Z,1013.18
2018-03-20T10:13:55.630Z,1013.18
2018-03-20T10:14:55.596Z,1013.15
2018-03-20T10:15:55.581Z,1013.24
2018-03-20T10:16:55.538Z,1013.26
2018-03-20T10:17:55.503Z,1013.29
2018-03-20T10:18:55.480Z,1013.31
2018-03-20T10:19:55.447Z,1013.36
2018-03-20T10:20:55.414Z,1013.38
2018-03-20T10:21:55.388Z,1013.31
2018-03-20T10:22:55.348Z,1013.30
2018-03-20T10:23:55.326Z,1013.36
2018-03-20T10:24:55.306Z,1013.54
2018-03-20T10:25:55.262Z,1013.38
2018-03-20T10:26:55.230Z,1013.43
2018-03-20T10:27:55.202Z,1013.43
2018-03-20T10:28:55.162Z,1013.47
2018-03-20T10:29:55.142Z,1013.44
2018-03-20T10:30:55.108Z,1013.49
2018-03-20T10:31:55.072Z,1013.38
2018-03-20T10:32:55.051Z,1013.37
2018-03-20T10:33:55.018Z,1013.37
2018-03-20T10:34:54.994Z,1013.37
2018-03-20T10:35:55.009Z,1013.38
2018-03-20T10:36:54.933Z,1013.41
2018-03-20T10:37:54.910Z,1013.44
2018-03-20T10:38:54.863Z,1013.47
2018-03-20T10:39:54.838Z,1013.39
2018-03-20T10:40:54.815Z,1013.46
2018-03-20T10:41:54.778Z,1013.42
2018-03-20T10:42:54.740Z,1013.46
2018-03-20T10:43:54.721Z,1013.56
2018-03-20T10:44:54.679Z,1013.58
2018-03-20T10:45:54.658Z,1013.63
2018-03-20T10:46:54.638Z,1013.46
2018-03-20T10:47:54.599Z,1013.45
2018-03-20T10:48:54.576Z,1013.61
2018-03-20T10:49:54.537Z,1013.55
2018-03-20T10:50:54.497Z,1013.48
2018-03-20T10:51:54.481Z,1013.60
2018-03-20T10:52:54.440Z,1013.49
2018-03-20T10:53:54.422Z,1013.50
2018-03-20T10:54:54.408Z,1013.48
2018-03-20T10:55:54.353Z,1013.49
2018-03-20T10:56:54.359Z,1013.56
2018-03-20T10:57:54.294Z,1013.60
2018-03-20T10:58:54.260Z,1013.57
2018-03-20T10:59:54.230Z,1013.74
2018-03-20T11:00:54.208Z,1013.63
2018-03-20T11:01:54.164Z,1013.74
2018-03-20T11:02:54.159Z,1013.64
2018-03-20T11:03:54.119Z,1013.65
2018-03-20T11:04:54.094Z,1013.67
2018-03-20T11:05:54.050Z,1013.72
2018-03-20T11:06:54.033Z,1013.67
2018-03-20T11:07:53.995Z,1013.71
2018-03-20T11:08:53.970Z,1013.67
2018-03-20T11:09:53.926Z,1013.68
2018-03-20T11:10:53.901Z,1013.85
2018-03-20T11:11:53.867Z,1013.87
2018-03-20T11:12:53.849Z,1013.77
2018-03-20T11:13:53.819Z,1013.72
2018-03-20T11:14:53.778Z,1013.70
2018-03-20T11:15:53.756Z,1013.84
2018-03-20T11:16:53.721Z,1013.81
2018-03-20T11:17:53.699Z,1013.84
2018-03-20T11:18:53.668Z,1013.77
2018-03-20T11:19:53.639Z,1014.21
2018-03-20T11:20:53.599Z,1013.83
2018-03-20T11:21:53.576Z,1013.85
2018-03-20T11:22:53.548Z,1013.78
2018-03-20T11:23:53.521Z,1013.82
2018-03-20T11:24:53.508Z,1013.77
2018-03-20T11:25:53.471Z,1013.85
2018-03-20T11:26:53.430Z,1013.89
2018-03-20T11:27:53.397Z,1013.99
2018-03-20T11:28:53.384Z,1013.92
2018-03-20T11:29:53.350Z,1013.94
2018-03-20T11:30:53.312Z,1013.97
2018-03-20T11:31:53.316Z,1013.93
2018-03-20T11:32:53.252Z,1014.05
2018-03-20T11:33:53.223Z,1013.89
2018-03-20T11:34:53.216Z,1013.96
2018-03-20T11:35:53.200Z,1013.92
2018-03-20T11:36:53.133Z,1013.95
2018-03-20T11:37:53.105Z,1014.10
2018-03-20T11:38:53.070Z,1013.94
2018-03-20T11:39:53.058Z,1014.05
2018-03-20T11:40:53.017Z,1014.15
2018-03-20T11:41:52.979Z,1014.03
2018-03-20T11:42:52.973Z,1014.01
2018-03-20T11:43:52.953Z,1014.11
2018-03-20T11:44:52.896Z,1014.10
2018-03-20T11:45:52.875Z,1014.13
2018-03-20T11:46:52.845Z,1014.24
2018-03-20T11:47:52.809Z,1014.14
2018-03-20T11:48:52.779Z,1014.15
2018-03-20T11:49:52.746Z,1014.14
2018-03-20T11:50:52.728Z,1014.15
2018-03-20T11:51:52.765Z,1014.14
2018-03-20T11:52:52.678Z,1014.21
2018-03-20T11:53:52.643Z,1014.19
2018-03-20T11:54:52.644Z,1014.18
2018-03-20T11:55:52.580Z,1014.22
2018-03-20T11:56:52.565Z,1014.25
2018-03-20T11:57:52.516Z,1014.33
2018-03-20T11:58:52.502Z,1014.22
2018-03-20T11:59:52.479Z,1014.29
2018-03-20T12:00:52.440Z,1014.38
2018-03-20T12:01:52.398Z,1014.38
2018-03-20T12:02:52.387Z,1014.33
2018-03-20T12:03:52.345Z,1014.36
2018-03-20T12:04:52.355Z,1014.40